createdAt,value
2018-06-05T00:02:20.615Z,80.25
2018-06-05T00:04:48.867Z,80.15
2018-06-05T00:07:17.133Z,80.84
2018-06-05T00:09:45.350Z,81.07
2018-06-05T00:12:13.598Z,80.89
2018-06-05T00:14:41.836Z,80.77
2018-06-05T00:17:10.072Z,80.45
2018-06-05T00:19:38.328Z,81.31
2018-06-05T00:22:06.563Z,81.61
2018-06-05T00:24:34.803Z,81.42
2018-06-05T00:27:03.004Z,81.42
2018-06-05T00:29:31.230Z,80.84
2018-06-05T00:31:59.436Z,81.35
2018-06-05T00:34:27.645Z,82.18
2018-06-05T00:36:55.936Z,82.06
2018-06-05T00:39:24.137Z,82.07
2018-06-05T00:41:52.331Z,81.85
2018-06-05T00:44:20.553Z,81.88
2018-06-05T00:46:48.748Z,82.53
2018-06-05T00:49:16.927Z,82.30
2018-06-05T00:51:56.572Z,82.18
2018-06-05T00:54:24.824Z,82.49
2018-06-05T00:56:53.068Z,81.70
2018-06-05T00:59:21.301Z,82.44
2018-06-05T01:01:49.537Z,82.09
2018-06-05T01:04:17.766Z,82.37
2018-06-05T01:06:45.977Z,82.46
2018-06-05T01:09:14.172Z,82.40
2018-06-05T01:11:42.400Z,82.39
2018-06-05T01:14:10.625Z,82.10
2018-06-05T01:16:38.855Z,81.78
2018-06-05T01:19:07.080Z,81.51
2018-06-05T01:21:35.290Z,82.12
2018-06-05T01:24:03.575Z,82.06
2018-06-05T01:26:31.807Z,81.42
2018-06-05T01:29:00.021Z,81.92
2018-06-05T01:31:28.206Z,82.30
2018-06-05T01:33:56.443Z,82.41
2018-06-05T01:36:24.771Z,82.38
2018-06-05T01:38:52.974Z,82.26
2018-06-05T01:41:21.216Z,82.31
2018-06-05T01:43:49.437Z,82.69
2018-06-05T01:46:17.646Z,81.94
2018-06-05T01:48:45.857Z,82.00
2018-06-05T01:51:14.032Z,82.12
2018-06-05T01:53:42.417Z,81.70
2018-06-05T01:56:10.658Z,81.45
2018-06-05T01:58:38.835Z,82.42
2018-06-05T02:01:07.082Z,82.75
2018-06-05T02:03:35.270Z,82.39
2018-06-05T02:06:03.500Z,83.24
2018-06-05T02:08:31.710Z,83.06
2018-06-05T02:10:59.964Z,83.44
2018-06-05T02:13:28.269Z,83.46
2018-06-05T02:15:56.468Z,84.41
2018-06-05T02:18:24.749Z,84.25
2018-06-05T02:20:52.960Z,84.13
2018-06-05T02:23:21.202Z,84.48
2018-06-05T02:25:49.431Z,84.53
2018-06-05T02:28:17.712Z,84.15
2018-06-05T02:30:45.964Z,84.17
2018-06-05T02:33:14.217Z,84.14
2018-06-05T02:35:42.445Z,83.90
2018-06-05T02:38:10.759Z,84.22
2018-06-05T02:40:38.952Z,83.99
2018-06-05T02:43:07.175Z,83.78
2018-06-05T02:45:35.526Z,84.26
2018-06-05T02:48:03.745Z,83.35
2018-06-05T02:50:31.939Z,83.29
2018-06-05T02:53:00.181Z,82.69
2018-06-05T02:55:28.450Z,82.33
2018-06-05T02:58:03.623Z,82.46
2018-06-05T03:00:31.809Z,83.14
2018-06-05T03:03:00.097Z,82.44
2018-06-05T03:05:28.430Z,83.17
2018-06-05T03:07:56.712Z,82.48
2018-06-05T03:10:24.945Z,82.75
2018-06-05T03:12:58.754Z,83.00
2018-06-05T03:15:27.020Z,82.53
2018-06-05T03:17:55.274Z,82.52
2018-06-05T03:20:23.491Z,82.89
2018-06-05T03:22:51.695Z,82.87
2018-06-05T03:25:19.999Z,82.41
2018-06-05T03:27:48.273Z,82.26
2018-06-05T03:30:16.592Z,82.13
2018-06-05T03:32:44.838Z,82.26
2018-06-05T03:35:13.149Z,81.73
2018-06-05T03:37:41.407Z,82.18
2018-06-05T03:40:09.575Z,81.85
2018-06-05T03:42:37.766Z,82.12
2018-06-05T03:45:06.231Z,81.95
2018-06-05T03:47:34.448Z,81.48
2018-06-05T03:50:02.696Z,81.19
2018-06-05T03:52:30.933Z,81.06
2018-06-05T03:54:59.170Z,80.58
2018-06-05T03:57:27.486Z,80.72
2018-06-05T03:59:55.709Z,80.36
2018-06-05T04:02:23.956Z,80.07
2018-06-05T04:04:52.299Z,79.78
2018-06-05T04:07:20.553Z,80.53
2018-06-05T04:09:48.787Z,80.46
2018-06-05T04:12:17.040Z,79.64
2018-06-05T04:14:45.275Z,79.58
2018-06-05T04:17:13.501Z,79.42
2018-06-05T04:19:41.672Z,79.75
2018-06-05T04:22:09.950Z,79.30
2018-06-05T04:24:38.200Z,80.08
2018-06-05T04:27:06.534Z,79.21
2018-06-05T04:29:34.695Z,79.45
2018-06-05T04:32:02.927Z,79.60
2018-06-05T04:34:31.173Z,79.91
2018-06-05T04:36:59.457Z,80.00
2018-06-05T04:39:27.705Z,79.58
2018-06-05T04:41:55.924Z,79.17
2018-06-05T04:44:24.153Z,79.14
2018-06-05T04:46:52.381Z,79.08
2018-06-05T04:49:20.615Z,79.17
2018-06-05T04:51:48.888Z,78.96
2018-06-05T04:54:17.148Z,79.49
2018-06-05T04:56:45.795Z,78.92
2018-06-05T04:59:14.038Z,79.02
2018-06-05T05:01:42.304Z,79.07
2018-06-05T05:04:10.513Z,78.16
2018-06-05T05:06:38.737Z,78.21
2018-06-05T05:09:07.522Z,76.70
2018-06-05T05:11:36.131Z,76.09
2018-06-05T05:14:04.385Z,76.44
2018-06-05T05:16:32.686Z,76.68
2018-06-05T05:19:00.911Z,76.27
2018-06-05T05:21:29.140Z,76.36
2018-06-05T05:23:57.405Z,75.87
2018-06-05T05:26:25.665Z,76.67
2018-06-05T05:28:53.851Z,76.36
2018-06-05T05:31:22.112Z,76.29
2018-06-05T05:33:50.288Z,76.57
2018-06-05T05:36:18.544Z,75.47
2018-06-05T05:38:46.734Z,75.15
2018-06-05T05:41:14.968Z,75.23
2018-06-05T05:43:43.198Z,75.44
2018-06-05T05:46:11.493Z,75.30
2018-06-05T05:48:39.664Z,75.14
2018-06-05T05:51:07.895Z,75.39
2018-06-05T05:53:36.079Z,73.90
2018-06-05T05:56:04.322Z,73.30
2018-06-05T05:58:32.557Z,73.81
2018-06-05T06:01:00.765Z,73.28
2018-06-05T06:03:28.992Z,73.15
2018-06-05T06:05:57.288Z,74.13
2018-06-05T06:08:25.507Z,75.00
2018-06-05T06:10:53.894Z,74.68
2018-06-05T06:13:22.070Z,75.32
2018-06-05T06:15:50.256Z,74.90
2018-06-05T06:18:18.493Z,75.58
2018-06-05T06:20:46.746Z,75.15
2018-06-05T06:23:14.965Z,75.93
2018-06-05T06:25:43.212Z,75.27
2018-06-05T06:28:11.482Z,75.29
2018-06-05T06:30:39.676Z,75.24
2018-06-05T06:33:07.900Z,75.83
2018-06-05T06:35:36.091Z,75.74
2018-06-05T06:38:04.347Z,75.39
2018-06-05T06:40:32.594Z,75.47
2018-06-05T06:43:00.825Z,75.35
2018-06-05T06:45:29.097Z,74.47
2018-06-05T06:47:57.356Z,74.23
2018-06-05T06:50:25.575Z,74.22
2018-06-05T06:52:53.788Z,73.29
2018-06-05T06:55:22.031Z,73.46
2018-06-05T06:57:50.226Z,73.80
2018-06-05T07:00:18.453Z,72.83
2018-06-05T07:02:46.692Z,73.21
2018-06-05T07:05:14.902Z,73.06
2018-06-05T07:07:43.138Z,73.57
2018-06-05T07:10:11.441Z,72.71
2018-06-05T07:12:39.667Z,73.12
2018-06-05T07:15:07.876Z,72.17
2018-06-05T07:17:36.169Z,72.56
2018-06-05T07:20:04.376Z,72.38
2018-06-05T07:22:32.738Z,72.48
2018-06-05T07:25:01.043Z,72.86
2018-06-05T07:27:29.317Z,72.02
2018-06-05T07:29:57.505Z,71.54
2018-06-05T07:32:25.743Z,71.65
2018-06-05T07:34:54.009Z,71.70
2018-06-05T07:37:22.217Z,70.46
2018-06-05T07:39:50.460Z,70.45
2018-06-05T07:42:18.705Z,70.51
2018-06-05T07:44:46.916Z,70.24
2018-06-05T07:47:15.205Z,70.68
2018-06-05T07:49:43.455Z,70.29
2018-06-05T07:52:11.721Z,70.23
2018-06-05T07:54:39.968Z,70.57
2018-06-05T07:57:08.252Z,70.61
2018-06-05T07:59:36.496Z,70.32
2018-06-05T08:02:04.789Z,70.77
2018-06-05T08:04:32.982Z,68.80
2018-06-05T08:07:01.463Z,68.45
2018-06-05T08:09:29.684Z,68.87
2018-06-05T08:11:57.937Z,67.18
2018-06-05T08:14:26.217Z,67.67
2018-06-05T08:16:54.442Z,66.32
2018-06-05T08:19:22.675Z,65.93
2018-06-05T08:21:50.904Z,66.85
2018-06-05T08:24:19.132Z,66.50
2018-06-05T08:26:52.669Z,67.23
2018-06-05T08:29:21.336Z,67.88
2018-06-05T08:31:49.635Z,67.88
2018-06-05T08:34:17.909Z,68.12
2018-06-05T08:36:46.213Z,67.67
2018-06-05T08:39:14.455Z,67.35
2018-06-05T08:41:42.656Z,67.30
2018-06-05T08:44:10.927Z,66.44
2018-06-05T08:46:39.173Z,66.42
2018-06-05T08:49:07.388Z,66.86
2018-06-05T08:51:35.670Z,67.32
2018-06-05T08:54:03.857Z,67.05
2018-06-05T08:56:32.064Z,66.94
2018-06-05T08:59:00.259Z,67.30
2018-06-05T09:01:28.490Z,67.62
2018-06-05T09:03:56.878Z,67.40
2018-06-05T09:06:25.116Z,67.81
2018-06-05T09:08:53.297Z,69.03
2018-06-05T09:11:21.549Z,67.71
2018-06-05T09:13:49.735Z,66.83
2018-06-05T09:16:17.899Z,66.56
2018-06-05T09:18:46.097Z,67.25
2018-06-05T09:21:14.334Z,67.68
2018-06-05T09:23:42.485Z,67.24
2018-06-05T09:26:10.744Z,66.94
2018-06-05T09:28:38.975Z,68.21
2018-06-05T09:31:07.163Z,67.40
2018-06-05T09:33:35.432Z,66.62
2018-06-05T09:36:03.693Z,67.41
2018-06-05T09:38:32.045Z,66.88
2018-06-05T09:41:00.371Z,67.60
2018-06-05T09:43:28.552Z,67.71
2018-06-05T09:45:56.829Z,68.04
2018-06-05T09:48:25.022Z,67.60
2018-06-05T09:50:53.256Z,66.85
2018-06-05T09:53:21.401Z,67.69
2018-06-05T09:55:49.642Z,67.42
2018-06-05T09:58:18.179Z,66.89
2018-06-05T10:00:51.368Z,66.47
2018-06-05T10:03:20.293Z,65.88
2018-06-05T10:05:48.525Z,65.00
2018-06-05T10:08:16.763Z,64.74
2018-06-05T10:10:45.009Z,65.92
2018-06-05T10:13:13.323Z,66.23
2018-06-05T10:15:41.739Z,65.24
2018-06-05T10:18:09.965Z,64.61
2018-06-05T10:20:38.200Z,64.19
2018-06-05T10:23:06.846Z,64.36
2018-06-05T10:25:35.068Z,65.15
2018-06-05T10:28:03.299Z,65.41
2018-06-05T10:30:31.511Z,65.28
2018-06-05T10:32:59.733Z,65.72
2018-06-05T10:35:28.035Z,66.48
2018-06-05T10:37:56.287Z,67.07
2018-06-05T10:40:24.503Z,66.62
2018-06-05T10:42:52.686Z,66.63
2018-06-05T10:45:20.944Z,66.11
2018-06-05T10:47:49.266Z,66.85
2018-06-05T10:50:17.528Z,66.18
2018-06-05T10:52:45.809Z,66.14
2018-06-05T10:55:14.032Z,65.89
2018-06-05T10:57:42.266Z,67.25
2018-06-05T11:00:10.470Z,67.39
2018-06-05T11:02:38.704Z,66.86
2018-06-05T11:05:06.977Z,67.43
2018-06-05T11:07:35.237Z,67.57
2018-06-05T11:10:03.527Z,67.70
2018-06-05T11:12:31.737Z,67.96
2018-06-05T11:14:59.980Z,67.86
2018-06-05T11:17:28.189Z,66.93
2018-06-05T11:19:56.368Z,67.09
2018-06-05T11:22:24.633Z,67.54
2018-06-05T11:24:52.850Z,68.20
2018-06-05T11:27:21.089Z,67.90
2018-06-05T11:29:49.358Z,67.18
2018-06-05T11:32:17.597Z,67.94
2018-06-05T11:34:46.010Z,68.94
2018-06-05T11:37:14.241Z,68.72
2018-06-05T11:39:42.425Z,67.72
2018-06-05T11:42:10.693Z,67.92
2018-06-05T11:44:38.967Z,68.42
2018-06-05T11:47:07.232Z,67.83
2018-06-05T11:49:35.455Z,66.86
2018-06-05T11:52:03.843Z,65.87
2018-06-05T11:54:32.070Z,65.96
2018-06-05T11:57:00.261Z,63.36
2018-06-05T11:59:28.527Z,62.06
2018-06-05T12:01:56.743Z,60.73
2018-06-05T12:04:24.971Z,62.19
2018-06-05T12:06:53.281Z,62.22
2018-06-05T12:09:21.645Z,62.35
2018-06-05T12:11:49.848Z,62.13
2018-06-05T12:14:18.148Z,60.72
2018-06-05T12:16:46.333Z,61.33
2018-06-05T12:19:14.511Z,62.00
2018-06-05T12:21:42.749Z,61.56
2018-06-05T12:24:11.188Z,61.69
2018-06-05T12:26:39.383Z,61.17
2018-06-05T12:29:07.642Z,61.51
2018-06-05T12:31:35.920Z,60.38
2018-06-05T12:34:04.153Z,59.16
2018-06-05T12:36:32.386Z,59.45
2018-06-05T12:39:00.661Z,59.26
2018-06-05T12:41:28.884Z,58.66
2018-06-05T12:43:57.044Z,58.51
2018-06-05T12:46:25.287Z,57.35
2018-06-05T12:48:53.518Z,57.80
2018-06-05T12:51:21.711Z,56.81
2018-06-05T12:53:49.976Z,57.00
2018-06-05T12:56:18.204Z,57.81
2018-06-05T12:58:46.404Z,58.29
2018-06-05T13:01:14.625Z,57.94
2018-06-05T13:03:42.918Z,56.80
2018-06-05T13:06:11.156Z,57.18
2018-06-05T13:08:39.466Z,57.54
2018-06-05T13:11:07.729Z,57.83
2018-06-05T13:13:35.964Z,57.11
2018-06-05T13:16:04.218Z,56.53
2018-06-05T13:18:32.457Z,56.33
2018-06-05T13:21:00.642Z,55.21
2018-06-05T13:23:28.928Z,53.66
2018-06-05T13:25:57.229Z,55.67
2018-06-05T13:28:25.374Z,56.34
2018-06-05T13:30:53.628Z,55.88
2018-06-05T13:33:21.875Z,54.37
2018-06-05T13:35:50.105Z,52.48
2018-06-05T13:38:18.358Z,51.82
2018-06-05T13:40:46.665Z,51.46
2018-06-05T13:43:14.869Z,51.79
2018-06-05T13:45:43.044Z,51.72
2018-06-05T13:48:11.430Z,51.43
2018-06-05T13:50:39.641Z,53.14
2018-06-05T13:53:07.914Z,54.68
2018-06-05T13:55:36.134Z,54.48
2018-06-05T13:58:04.336Z,55.04
2018-06-05T14:00:32.531Z,56.36
2018-06-05T14:03:00.756Z,56.65
2018-06-05T14:05:29.003Z,56.39
2018-06-05T14:07:57.224Z,56.50
2018-06-05T14:10:25.483Z,56.00
2018-06-05T14:12:53.744Z,53.77
2018-06-05T14:15:21.941Z,54.72
2018-06-05T14:17:50.198Z,55.37
2018-06-05T14:20:18.396Z,54.47
2018-06-05T14:22:46.636Z,54.64
2018-06-05T14:25:14.851Z,54.67
2018-06-05T14:27:43.078Z,54.13
2018-06-05T14:30:11.406Z,53.58
2018-06-05T14:32:39.689Z,54.51
2018-06-05T14:35:07.938Z,55.92
2018-06-05T14:37:36.192Z,57.55
2018-06-05T14:40:04.722Z,57.12
2018-06-05T14:42:32.923Z,56.57
2018-06-05T14:45:01.209Z,55.95
2018-06-05T14:47:29.351Z,55.98
2018-06-05T14:49:57.607Z,55.84
2018-06-05T14:52:25.876Z,54.59
2018-06-05T14:54:54.111Z,52.14
2018-06-05T14:57:22.336Z,50.27
2018-06-05T14:59:50.573Z,48.50
2018-06-05T15:02:18.788Z,46.74
2018-06-05T15:04:47.083Z,45.60
2018-06-05T15:07:15.311Z,42.84
2018-06-05T15:09:43.765Z,43.38
2018-06-05T15:12:12.080Z,42.66
2018-06-05T15:14:40.285Z,40.88
2018-06-05T15:17:08.516Z,40.06
2018-06-05T15:19:36.750Z,41.15
2018-06-05T15:22:05.009Z,41.33
2018-06-05T15:24:33.239Z,41.18
2018-06-05T15:27:01.508Z,42.33
2018-06-05T15:29:29.727Z,41.60
2018-06-05T15:31:58.021Z,41.22
2018-06-05T15:34:26.243Z,41.44
2018-06-05T15:36:54.518Z,44.86
2018-06-05T15:39:22.729Z,45.29
2018-06-05T15:41:50.958Z,43.80
2018-06-05T15:44:19.225Z,41.43
2018-06-05T15:46:47.485Z,41.28
2018-06-05T15:49:15.689Z,40.96
2018-06-05T15:51:43.925Z,40.36
2018-06-05T15:54:12.318Z,41.30
2018-06-05T15:56:40.516Z,43.19
2018-06-05T15:59:08.709Z,43.10
2018-06-05T16:01:36.918Z,46.15
2018-06-05T16:04:05.489Z,50.84
2018-06-05T16:06:33.762Z,53.08
2018-06-05T16:09:01.980Z,53.87
2018-06-05T16:11:30.274Z,50.62
2018-06-05T16:13:58.506Z,49.21
2018-06-05T16:16:26.672Z,49.51
2018-06-05T16:18:54.843Z,49.42
2018-06-05T16:21:23.074Z,50.55
2018-06-05T16:23:51.597Z,51.28
2018-06-05T16:26:19.827Z,51.37
2018-06-05T16:28:48.032Z,51.98
2018-06-05T16:31:16.290Z,50.90
2018-06-05T16:33:44.503Z,51.08
2018-06-05T16:36:12.713Z,52.32
2018-06-05T16:38:41.001Z,52.60
2018-06-05T16:41:09.145Z,52.22
2018-06-05T16:43:37.369Z,52.18
2018-06-05T16:46:05.552Z,51.85
2018-06-05T16:48:33.895Z,52.32
2018-06-05T16:51:02.128Z,52.43
2018-06-05T16:53:30.351Z,53.16
2018-06-05T16:55:58.614Z,54.03
2018-06-05T16:58:26.856Z,53.11
2018-06-05T17:00:55.092Z,53.78
2018-06-05T17:03:23.296Z,53.79
2018-06-05T17:05:51.521Z,50.94
2018-06-05T17:08:19.721Z,49.48
2018-06-05T17:10:48.026Z,50.09
2018-06-05T17:13:16.210Z,51.94
2018-06-05T17:15:44.441Z,52.09
2018-06-05T17:18:12.672Z,53.03
2018-06-05T17:20:40.904Z,52.47
2018-06-05T17:23:09.231Z,52.84
2018-06-05T17:25:37.463Z,52.85
2018-06-05T17:28:05.728Z,52.87
2018-06-05T17:30:33.906Z,52.96
2018-06-05T17:33:02.082Z,52.36
2018-06-05T17:35:30.248Z,52.00
2018-06-05T17:37:58.420Z,52.71
2018-06-05T17:40:27.054Z,52.71
2018-06-05T17:42:55.555Z,52.04
2018-06-05T17:45:23.761Z,52.32
2018-06-05T17:47:52.017Z,52.51
2018-06-05T17:50:20.300Z,52.82
2018-06-05T17:52:50.271Z,52.40
2018-06-05T17:55:20.126Z,51.24
2018-06-05T17:57:48.475Z,48.41
2018-06-05T18:00:17.178Z,47.95
2018-06-05T18:02:46.226Z,46.90
2018-06-05T18:05:15.665Z,45.89
2018-06-05T18:07:44.616Z,45.91
2018-06-05T18:10:13.923Z,44.38
2018-06-05T18:12:43.155Z,44.39
2018-06-05T18:15:12.172Z,43.03
2018-06-05T18:17:41.847Z,41.44
2018-06-05T18:20:11.789Z,40.98
2018-06-05T18:22:40.825Z,40.20
2018-06-05T18:25:10.412Z,38.99
2018-06-05T18:27:40.059Z,38.63
2018-06-05T18:30:08.526Z,38.87
2018-06-05T18:32:37.678Z,39.66
2018-06-05T18:35:06.512Z,39.29
2018-06-05T18:37:34.949Z,40.12
2018-06-05T18:40:03.699Z,40.72
2018-06-05T18:42:32.490Z,41.35
2018-06-05T18:45:01.022Z,42.05
2018-06-05T18:47:29.498Z,42.58
2018-06-05T18:49:58.572Z,43.03
2018-06-05T18:52:27.957Z,43.59
2018-06-05T18:54:56.578Z,44.08
2018-06-05T18:57:25.233Z,43.52
2018-06-05T18:59:54.300Z,43.77
2018-06-05T19:02:23.104Z,42.13
2018-06-05T19:04:51.384Z,40.30
2018-06-05T19:07:19.633Z,40.02
2018-06-05T19:09:47.868Z,35.89
2018-06-05T19:12:16.240Z,35.99
2018-06-05T19:14:44.586Z,34.41
2018-06-05T19:17:12.821Z,34.04
2018-06-05T19:19:40.983Z,34.42
2018-06-05T19:22:09.322Z,34.65
2018-06-05T19:24:37.619Z,34.00
2018-06-05T19:27:05.935Z,33.16
2018-06-05T19:29:34.227Z,31.94
2018-06-05T19:32:02.566Z,32.13
2018-06-05T19:34:30.901Z,32.53
2018-06-05T19:36:59.154Z,33.80
2018-06-05T19:39:27.490Z,35.20
2018-06-05T19:41:55.715Z,35.40
2018-06-05T19:44:24.225Z,37.30
2018-06-05T19:46:53.282Z,37.10
2018-06-05T19:49:22.303Z,37.82
2018-06-05T19:51:50.991Z,37.96
2018-06-05T19:54:19.941Z,37.95
2018-06-05T19:56:48.428Z,38.01
2018-06-05T19:59:17.409Z,38.20
2018-06-05T20:01:46.336Z,37.07
2018-06-05T20:04:14.704Z,37.74
2018-06-05T20:06:43.117Z,36.29
2018-06-05T20:09:11.598Z,36.52
2018-06-05T20:11:39.989Z,35.18
2018-06-05T20:14:08.568Z,34.86
2018-06-05T20:16:37.480Z,34.57
2018-06-05T20:19:05.864Z,35.36
2018-06-05T20:21:34.688Z,34.94
2018-06-05T20:24:02.980Z,35.86
2018-06-05T20:26:31.458Z,35.67
2018-06-05T20:28:59.944Z,35.45
2018-06-05T20:31:28.440Z,36.25
2018-06-05T20:33:57.164Z,36.51
2018-06-05T20:36:25.654Z,37.29
2018-06-05T20:38:53.909Z,37.05
2018-06-05T20:41:22.143Z,37.84
2018-06-05T20:43:50.360Z,38.34
2018-06-05T20:46:18.600Z,38.15
2018-06-05T20:48:46.831Z,39.13
2018-06-05T20:51:15.129Z,39.01
2018-06-05T20:53:43.357Z,39.34
2018-06-05T20:56:11.606Z,39.27
2018-06-05T20:58:39.884Z,40.07
2018-06-05T21:01:08.113Z,40.29
2018-06-05T21:03:36.361Z,40.71
2018-06-05T21:06:04.599Z,40.59
2018-06-05T21:08:33.713Z,41.53
2018-06-05T21:11:02.020Z,41.20
2018-06-05T21:13:30.265Z,42.07
2018-06-05T21:15:58.492Z,42.48
2018-06-05T21:18:26.753Z,42.62
2018-06-05T21:20:54.931Z,43.12
2018-06-05T21:23:23.196Z,43.33
2018-06-05T21:25:51.388Z,43.33
2018-06-05T21:28:19.609Z,44.05
2018-06-05T21:30:47.836Z,43.84
2018-06-05T21:33:16.124Z,44.69
2018-06-05T21:35:44.339Z,44.87
2018-06-05T21:38:12.595Z,45.36
2018-06-05T21:40:40.872Z,45.57
2018-06-05T21:43:09.112Z,46.05
2018-06-05T21:45:37.322Z,45.82
2018-06-05T21:48:05.596Z,46.67
2018-06-05T21:50:33.945Z,46.75
2018-06-05T21:53:02.473Z,46.84
2018-06-05T21:55:30.726Z,47.68
2018-06-05T21:57:58.910Z,47.29
2018-06-05T22:00:27.147Z,47.94
2018-06-05T22:02:55.480Z,48.43
2018-06-05T22:05:23.727Z,48.51
2018-06-05T22:07:52.008Z,48.40
2018-06-05T22:10:20.227Z,48.30
2018-06-05T22:12:48.806Z,48.77
2018-06-05T22:15:17.058Z,48.77
2018-06-05T22:17:45.310Z,49.70
2018-06-05T22:20:13.577Z,49.77
2018-06-05T22:22:41.801Z,50.21
2018-06-05T22:25:10.140Z,49.99
2018-06-05T22:27:38.445Z,50.68
2018-06-05T22:30:07.723Z,50.55
2018-06-05T22:32:35.937Z,51.13
2018-06-05T22:35:04.209Z,51.00
2018-06-05T22:37:32.424Z,51.19
2018-06-05T22:40:00.691Z,52.03
2018-06-05T22:42:28.976Z,52.04
2018-06-05T22:44:57.315Z,52.76
2018-06-05T22:47:25.672Z,52.88
2018-06-05T22:49:53.876Z,52.76
2018-06-05T22:52:22.105Z,52.85
2018-06-05T22:54:50.284Z,53.43
2018-06-05T22:57:18.603Z,53.84
2018-06-05T22:59:46.914Z,53.45
2018-06-05T23:02:15.125Z,53.79
2018-06-05T23:04:43.423Z,54.46
2018-06-05T23:07:11.646Z,54.37
2018-06-05T23:09:39.906Z,54.23
2018-06-05T23:12:08.106Z,54.93
2018-06-05T23:14:36.370Z,54.66
2018-06-05T23:17:04.551Z,54.90
2018-06-05T23:19:32.824Z,55.80
2018-06-05T23:22:01.031Z,55.37
2018-06-05T23:24:29.202Z,55.54
2018-06-05T23:26:57.405Z,56.22
2018-06-05T23:29:25.642Z,56.20
2018-06-05T23:31:53.874Z,56.47
2018-06-05T23:34:22.213Z,56.38
2018-06-05T23:36:50.418Z,55.94
2018-06-05T23:39:18.661Z,56.46
2018-06-05T23:41:46.909Z,56.14
2018-06-05T23:44:15.100Z,56.53
2018-06-05T23:46:43.374Z,56.66
2018-06-05T23:49:11.591Z,56.53
2018-06-05T23:51:39.802Z,56.63
2018-06-05T23:54:08.065Z,56.37
2018-06-05T23:56:36.218Z,57.29
2018-06-05T23:59:04.470Z,57.37
